Time;durP1;ratioP1;P1;durP2;ratioP2;P2;SDS_P1;SDS_P2;PMS_P1;PMS_P2;Temp;Humidity;BMP_temperature;BMP_pressure;BME280_temperature;BME280_humidity;BME280_pressure;Samples;Min_cycle;Max_cycle;Signal;HPM_P1;HPM_P2
2023/07/25 00:02:02;;;;;;;1.52;0.50;;;14.60;91.70;;;;;;4788636;29;20054;-80
2023/07/25 00:04:29;;;;;;;1.83;0.50;;;14.60;91.70;;;;;;4798001;29;20065;-80
2023/07/25 00:07:17;;;;;;;1.05;0.50;;;14.60;91.60;;;;;;4803613;29;20054;-80
2023/07/25 00:09:44;;;;;;;1.75;0.70;;;14.70;91.60;;;;;;4775793;29;20047;-81
2023/07/25 00:12:11;;;;;;;2.05;0.60;;;14.70;91.60;;;;;;4804448;29;20061;-81
2023/07/25 00:14:39;;;;;;;3.28;0.52;;;14.60;91.60;;;;;;4790557;29;20055;-80
2023/07/25 00:17:06;;;;;;;2.33;0.60;;;14.70;91.70;;;;;;4798860;29;20051;-81
2023/07/25 00:19:33;;;;;;;5.03;1.10;;;14.60;91.60;;;;;;4813462;29;20050;-82
2023/07/25 00:22:00;;;;;;;2.58;0.57;;;14.60;91.60;;;;;;4788945;29;20047;-79
2023/07/25 00:24:27;;;;;;;2.17;0.65;;;14.60;91.60;;;;;;4804069;29;20054;-80
2023/07/25 00:26:54;;;;;;;4.18;0.85;;;14.60;91.60;;;;;;4790924;29;20171;-79
2023/07/25 00:29:21;;;;;;;1.65;0.60;;;14.60;91.60;;;;;;4797660;29;20059;-82
2023/07/25 00:31:48;;;;;;;2.40;0.55;;;14.50;91.60;;;;;;4809385;29;20133;-80
2023/07/25 00:34:16;;;;;;;1.70;0.68;;;14.50;91.70;;;;;;4782086;29;20058;-80
2023/07/25 00:36:43;;;;;;;2.28;0.50;;;14.50;91.70;;;;;;4782598;29;20496;-80
2023/07/25 00:39:11;;;;;;;2.67;0.50;;;14.40;91.70;;;;;;4766178;29;20069;-80
2023/07/25 00:41:38;;;;;;;2.10;0.60;;;14.40;91.80;;;;;;4807133;29;20051;-82
2023/07/25 00:44:05;;;;;;;1.45;0.50;;;14.30;91.80;;;;;;4793448;29;20046;-82
2023/07/25 00:46:31;;;;;;;1.90;0.82;;;14.30;91.80;;;;;;4796389;29;20046;-82
2023/07/25 00:48:59;;;;;;;2.10;0.60;;;14.30;91.80;;;;;;4782542;29;20153;-82
2023/07/25 00:51:28;;;;;;;2.97;0.70;;;14.30;91.80;;;;;;4786668;29;20050;-82
2023/07/25 00:53:56;;;;;;;4.47;0.60;;;14.30;91.80;;;;;;4807986;29;20500;-80
2023/07/25 00:56:24;;;;;;;2.08;0.52;;;14.30;91.80;;;;;;4783495;29;20042;-82
2023/07/25 00:58:51;;;;;;;1.95;0.70;;;14.30;91.80;;;;;;4820181;29;20047;-82
2023/07/25 01:01:19;;;;;;;2.53;0.50;;;14.20;91.80;;;;;;4789958;29;20122;-82
2023/07/25 01:03:46;;;;;;;3.80;0.57;;;14.20;91.90;;;;;;4793646;29;20143;-81
2023/07/25 01:06:17;;;;;;;2.83;0.60;;;14.20;91.90;;;;;;4802975;29;20055;-82
2023/07/25 01:08:50;;;;;;;;;;;14.20;91.90;;;;;;4805410;29;20061;-82
2023/07/25 01:11:17;;;;;;;1.50;0.50;;;14.10;92.00;;;;;;4825389;29;19925;-82
2023/07/25 01:13:45;;;;;;;4.68;0.88;;;14.10;92.00;;;;;;4795378;29;20058;-82
2023/07/25 01:16:21;;;;;;;1.55;0.70;;;14.10;92.00;;;;;;4802688;29;20054;-81
2023/07/25 01:18:50;;;;;;;1.50;0.77;;;14.10;92.00;;;;;;4818131;29;20042;-81
2023/07/25 01:21:18;;;;;;;1.42;0.80;;;14.00;92.00;;;;;;4817863;29;20510;-82
2023/07/25 01:23:45;;;;;;;4.10;0.60;;;14.00;92.00;;;;;;4797740;29;20144;-82
2023/07/25 01:26:13;;;;;;;5.45;0.85;;;14.00;92.00;;;;;;4814660;29;20081;-80
2023/07/25 01:28:40;;;;;;;1.20;0.50;;;14.00;92.10;;;;;;4810366;29;20069;-80
2023/07/25 01:31:06;;;;;;;2.83;0.38;;;13.90;92.10;;;;;;4802933;29;20055;-81
2023/07/25 01:33:34;;;;;;;2.63;0.52;;;13.90;92.20;;;;;;4791718;29;20121;-81
2023/07/25 01:36:01;;;;;;;2.42;0.90;;;13.80;92.20;;;;;;4806305;29;20048;-81
2023/07/25 01:38:28;;;;;;;0.85;0.43;;;13.80;92.30;;;;;;4792238;29;20130;-80
2023/07/25 01:40:55;;;;;;;1.15;0.52;;;13.80;92.30;;;;;;4789045;29;20066;-81
2023/07/25 01:43:24;;;;;;;3.78;0.50;;;13.70;92.40;;;;;;4793723;29;20058;-81
2023/07/25 01:45:51;;;;;;;1.17;0.50;;;13.70;92.40;;;;;;4795571;29;20062;-81
2023/07/25 01:48:18;;;;;;;2.20;0.60;;;13.70;92.40;;;;;;4803953;29;20144;-82
2023/07/25 01:50:45;;;;;;;1.20;0.40;;;13.70;92.50;;;;;;4782606;29;20080;-82
2023/07/25 01:53:12;;;;;;;1.58;0.60;;;13.60;92.50;;;;;;4810667;29;20077;-81
2023/07/25 01:55:39;;;;;;;2.50;0.60;;;13.60;92.60;;;;;;4789839;29;20034;-80
2023/07/25 01:58:07;;;;;;;2.28;0.50;;;13.60;92.60;;;;;;4795630;29;20163;-82
2023/07/25 02:00:37;;;;;;;1.90;0.65;;;13.50;92.60;;;;;;4803221;29;20582;-81
2023/07/25 02:03:04;;;;;;;1.65;0.70;;;13.50;92.70;;;;;;4804755;29;20059;-80
2023/07/25 02:05:31;;;;;;;2.92;0.43;;;13.50;92.70;;;;;;4800248;29;20047;-81
2023/07/25 02:07:58;;;;;;;1.95;0.70;;;13.40;92.70;;;;;;4801592;29;20051;-81
2023/07/25 02:10:27;;;;;;;1.50;0.50;;;13.40;92.80;;;;;;4813079;29;20074;-81
2023/07/25 02:12:55;;;;;;;0.95;0.40;;;13.40;92.80;;;;;;4789987;29;20043;-82
2023/07/25 02:15:23;;;;;;;0.93;0.40;;;13.40;92.80;;;;;;4799454;29;20500;-81
2023/07/25 02:17:51;;;;;;;1.60;0.50;;;13.40;92.80;;;;;;4807916;29;20157;-81
2023/07/25 02:20:22;;;;;;;3.85;0.52;;;13.40;92.80;;;;;;4794149;29;20051;-82
2023/07/25 02:22:49;;;;;;;2.10;0.60;;;13.40;92.80;;;;;;4796112;29;20055;-82
2023/07/25 02:25:16;;;;;;;3.58;0.45;;;13.40;92.80;;;;;;4781363;29;20058;-81
2023/07/25 02:27:43;;;;;;;2.88;0.50;;;13.30;92.90;;;;;;4786525;29;20050;-81
2023/07/25 02:30:11;;;;;;;1.13;0.57;;;13.30;92.90;;;;;;4798482;29;20074;-81
2023/07/25 02:32:39;;;;;;;1.98;0.60;;;13.30;92.90;;;;;;4822130;29;20054;-82
2023/07/25 02:35:06;;;;;;;3.45;0.77;;;13.20;92.90;;;;;;4802988;29;20054;-81
2023/07/25 02:37:33;;;;;;;3.35;0.70;;;13.20;92.90;;;;;;4805234;29;20046;-81
2023/07/25 02:40:00;;;;;;;4.78;0.85;;;13.30;92.90;;;;;;4804490;29;20506;-82
2023/07/25 02:42:27;;;;;;;2.25;0.63;;;13.20;92.90;;;;;;4811833;29;20058;-81
2023/07/25 02:44:54;;;;;;;5.07;1.00;;;13.20;92.90;;;;;;4798037;29;20408;-81
2023/07/25 02:47:21;;;;;;;1.92;0.60;;;13.20;92.90;;;;;;4790262;29;20139;-82
2023/07/25 02:49:48;;;;;;;2.05;0.60;;;13.20;92.90;;;;;;4806854;29;20079;-82
2023/07/25 02:52:15;;;;;;;2.78;0.60;;;13.20;93.00;;;;;;4779441;29;20158;-82
2023/07/25 02:54:42;;;;;;;2.20;0.90;;;13.10;93.00;;;;;;4811682;29;20058;-82
2023/07/25 02:57:09;;;;;;;2.08;0.73;;;13.10;93.00;;;;;;4812892;29;20057;-82
2023/07/25 02:59:36;;;;;;;2.90;0.82;;;13.10;93.10;;;;;;4798103;29;20072;-83
2023/07/25 03:02:04;;;;;;;2.63;0.93;;;13.10;93.10;;;;;;4820042;29;20061;-82
2023/07/25 03:04:31;;;;;;;2.80;0.60;;;13.00;93.10;;;;;;4797732;29;20051;-82
2023/07/25 03:06:58;;;;;;;1.77;0.75;;;13.00;93.10;;;;;;4800057;29;20050;-82
2023/07/25 03:09:25;;;;;;;1.98;0.90;;;13.00;93.20;;;;;;4806150;29;20069;-83
2023/07/25 03:11:52;;;;;;;2.45;0.88;;;13.00;93.20;;;;;;4811904;29;20137;-83
2023/07/25 03:14:20;;;;;;;2.80;1.17;;;13.00;93.20;;;;;;4815540;29;20057;-83
2023/07/25 03:16:47;;;;;;;5.38;1.05;;;13.00;93.20;;;;;;4805020;29;20049;-83
2023/07/25 03:19:14;;;;;;;3.63;0.80;;;13.00;93.20;;;;;;4808511;29;20038;-83
2023/07/25 03:21:41;;;;;;;3.42;0.60;;;12.90;93.10;;;;;;4817581;29;20064;-83
2023/07/25 03:24:08;;;;;;;2.35;0.90;;;12.90;93.10;;;;;;4803093;29;20096;-83
2023/07/25 03:26:36;;;;;;;2.50;0.90;;;12.90;93.10;;;;;;4793273;29;20059;-82
2023/07/25 03:29:03;;;;;;;2.90;0.85;;;12.90;93.20;;;;;;4804375;29;20061;-84
2023/07/25 03:31:30;;;;;;;2.78;1.00;;;12.90;93.20;;;;;;4799072;29;20103;-82
2023/07/25 03:33:59;;;;;;;3.80;0.75;;;12.90;93.20;;;;;;4802272;29;20980;-81
2023/07/25 03:36:26;;;;;;;2.60;0.80;;;12.90;93.20;;;;;;4814580;29;21016;-83
2023/07/25 03:38:53;;;;;;;1.83;1.00;;;12.90;93.20;;;;;;4788580;29;20047;-81
2023/07/25 03:41:20;;;;;;;1.65;0.82;;;12.90;93.30;;;;;;4787625;29;20051;-82
2023/07/25 03:43:47;;;;;;;2.95;0.77;;;12.90;93.30;;;;;;4802366;29;20082;-82
2023/07/25 03:46:14;;;;;;;1.13;0.70;;;12.90;93.20;;;;;;4808629;29;20055;-82
2023/07/25 03:48:41;;;;;;;3.42;0.60;;;12.90;93.20;;;;;;4788376;29;20050;-82
2023/07/25 03:51:08;;;;;;;2.85;0.73;;;13.00;93.20;;;;;;4778481;29;20052;-82
2023/07/25 03:53:36;;;;;;;1.67;0.57;;;12.90;93.20;;;;;;4800601;29;20050;-82
2023/07/25 03:56:04;;;;;;;2.10;0.95;;;12.90;93.30;;;;;;4794692;29;20147;-81
2023/07/25 03:58:31;;;;;;;2.03;0.57;;;13.00;93.30;;;;;;4772155;29;20046;-81
2023/07/25 04:00:58;;;;;;;2.05;0.63;;;12.90;93.30;;;;;;4793475;29;20057;-81
2023/07/25 04:03:25;;;;;;;1.60;0.70;;;13.00;93.30;;;;;;4794339;29;20043;-81
2023/07/25 04:05:53;;;;;;;3.45;1.02;;;13.00;93.30;;;;;;4791393;29;20397;-81
2023/07/25 04:08:20;;;;;;;1.88;0.70;;;13.00;93.30;;;;;;4790836;29;20046;-81
2023/07/25 04:10:47;;;;;;;1.60;0.60;;;13.00;93.30;;;;;;4787284;29;20484;-81
2023/07/25 04:13:15;;;;;;;1.08;0.57;;;13.00;93.30;;;;;;4797328;29;20130;-82
2023/07/25 04:15:42;;;;;;;2.15;0.70;;;13.00;93.30;;;;;;4797015;29;20050;-81
2023/07/25 04:18:09;;;;;;;1.40;0.60;;;13.00;93.30;;;;;;4791653;29;20079;-81
2023/07/25 04:20:36;;;;;;;2.33;0.77;;;13.00;93.30;;;;;;4777798;29;20051;-81
2023/07/25 04:23:03;;;;;;;2.85;0.63;;;13.00;93.30;;;;;;4798953;29;20050;-81
2023/07/25 04:25:30;;;;;;;1.92;0.50;;;13.00;93.30;;;;;;4793293;29;20115;-81
2023/07/25 04:27:57;;;;;;;1.80;0.80;;;13.00;93.40;;;;;;4798037;29;20059;-83
2023/07/25 04:30:24;;;;;;;2.13;0.73;;;12.90;93.40;;;;;;4793054;29;20415;-83
2023/07/25 04:32:51;;;;;;;4.78;0.80;;;12.90;93.40;;;;;;4800242;29;20051;-82
2023/07/25 04:35:18;;;;;;;1.65;0.60;;;12.90;93.40;;;;;;4800139;29;20054;-81
2023/07/25 04:37:45;;;;;;;2.70;0.68;;;12.90;93.40;;;;;;4771984;29;20515;-81
2023/07/25 04:40:13;;;;;;;1.60;0.50;;;12.90;93.40;;;;;;4791253;29;20067;-81
2023/07/25 04:42:40;;;;;;;2.65;0.52;;;12.90;93.40;;;;;;4803874;29;20125;-81
2023/07/25 04:45:08;;;;;;;3.17;0.73;;;12.90;93.40;;;;;;4784511;29;20058;-82
2023/07/25 04:47:35;;;;;;;1.73;0.50;;;12.90;93.40;;;;;;4792726;29;20047;-81
2023/07/25 04:50:23;;;;;;;1.75;0.50;;;13.00;93.40;;;;;;4802657;29;20975;-80
2023/07/25 04:52:51;;;;;;;1.42;0.60;;;13.10;93.40;;;;;;4790657;29;20045;-82
2023/07/25 04:55:18;;;;;;;4.47;0.70;;;13.10;93.40;;;;;;4797685;29;20574;-81
2023/07/25 04:57:45;;;;;;;1.35;0.40;;;13.10;93.30;;;;;;4801163;29;20059;-82
2023/07/25 05:00:13;;;;;;;2.40;0.55;;;13.20;93.30;;;;;;4800863;29;20055;-82
2023/07/25 05:02:41;;;;;;;2.88;0.93;;;13.20;93.20;;;;;;4798101;29;20058;-81
2023/07/25 05:05:08;;;;;;;2.28;0.50;;;13.30;93.10;;;;;;4785844;29;20050;-82
2023/07/25 05:07:35;;;;;;;4.25;0.80;;;13.40;93.10;;;;;;4800937;29;20055;-81
2023/07/25 05:10:04;;;;;;;4.70;0.57;;;13.40;93.00;;;;;;4793540;29;20053;-81
2023/07/25 05:12:31;;;;;;;2.78;0.73;;;13.40;93.00;;;;;;4808117;29;20067;-82
2023/07/25 05:14:58;;;;;;;3.17;0.80;;;13.50;93.00;;;;;;4785283;29;20086;-82
2023/07/25 05:17:25;;;;;;;2.47;0.70;;;13.60;92.90;;;;;;4797650;29;20051;-81
2023/07/25 05:19:55;;;;;;;3.20;0.80;;;13.60;92.90;;;;;;4788380;29;20065;-83
2023/07/25 05:22:22;;;;;;;2.33;0.90;;;13.70;92.80;;;;;;4809731;29;20077;-83
2023/07/25 05:24:49;;;;;;;3.00;0.63;;;13.80;92.70;;;;;;4811266;29;20617;-83
2023/07/25 05:27:16;;;;;;;2.33;0.50;;;14.00;92.60;;;;;;4777638;29;20147;-83
2023/07/25 05:29:43;;;;;;;2.53;0.80;;;14.10;92.50;;;;;;4808830;29;20058;-81
2023/07/25 05:32:10;;;;;;;2.65;0.60;;;14.30;92.40;;;;;;4792826;29;20042;-82
2023/07/25 05:34:38;;;;;;;3.45;0.70;;;14.40;92.30;;;;;;4799373;29;20074;-83
2023/07/25 05:37:06;;;;;;;2.55;0.60;;;14.60;92.40;;;;;;4798615;29;20065;-84
2023/07/25 05:39:33;;;;;;;3.25;0.68;;;14.70;92.00;;;;;;4807650;29;20053;-82
2023/07/25 05:42:00;;;;;;;4.03;0.80;;;14.80;91.80;;;;;;4813099;29;20494;-82
2023/07/25 05:44:27;;;;;;;1.73;0.82;;;15.00;91.70;;;;;;4809094;29;20147;-81
2023/07/25 05:46:58;;;;;;;2.17;0.80;;;15.00;91.50;;;;;;4808256;29;20421;-82
2023/07/25 05:49:26;;;;;;;4.32;1.02;;;15.20;91.50;;;;;;4759908;29;20527;-82
2023/07/25 05:51:57;;;;;;;3.40;0.98;;;15.30;91.40;;;;;;4799909;29;20133;-82
2023/07/25 05:54:24;;;;;;;4.88;1.10;;;15.30;91.20;;;;;;4802523;29;20085;-82
2023/07/25 05:56:52;;;;;;;6.55;1.45;;;15.30;91.20;;;;;;4804658;29;20046;-82
2023/07/25 05:59:20;;;;;;;3.50;0.90;;;15.20;91.20;;;;;;4806294;29;20046;-83
2023/07/25 06:01:47;;;;;;;2.35;1.00;;;15.30;91.20;;;;;;4798962;29;20463;-83
2023/07/25 06:04:15;;;;;;;4.93;1.52;;;15.40;91.10;;;;;;4811807;29;20050;-81
2023/07/25 06:06:42;;;;;;;3.75;1.42;;;15.40;90.90;;;;;;4805790;29;20085;-81
2023/07/25 06:09:09;;;;;;;4.13;1.10;;;15.40;91.00;;;;;;4797372;29;20047;-81
2023/07/25 06:11:36;;;;;;;3.25;0.90;;;15.50;90.90;;;;;;4791774;29;20121;-81
2023/07/25 06:14:04;;;;;;;3.08;1.00;;;15.60;90.90;;;;;;4815318;29;20050;-82
2023/07/25 06:16:35;;;;;;;2.80;1.13;;;15.60;90.80;;;;;;4805273;29;20055;-81
2023/07/25 06:19:02;;;;;;;4.15;1.33;;;15.60;90.80;;;;;;4795412;29;20103;-82
2023/07/25 06:21:30;;;;;;;3.25;1.42;;;15.50;90.80;;;;;;4800610;29;20102;-82
2023/07/25 06:23:58;;;;;;;4.65;1.27;;;15.40;90.80;;;;;;4804631;29;20165;-82
2023/07/25 06:26:25;;;;;;;4.43;1.40;;;15.30;91.00;;;;;;4803012;29;20062;-82
2023/07/25 06:28:52;;;;;;;4.22;1.40;;;15.20;91.10;;;;;;4817484;29;20067;-84
2023/07/25 06:31:19;;;;;;;4.15;1.63;;;15.20;91.10;;;;;;4829132;29;20521;-83
2023/07/25 06:33:46;;;;;;;2.22;0.98;;;15.30;91.10;;;;;;4801364;29;20070;-83
2023/07/25 06:36:13;;;;;;;6.32;1.50;;;15.30;91.00;;;;;;4809573;29;20057;-83
2023/07/25 06:38:40;;;;;;;2.95;1.48;;;15.20;91.00;;;;;;4775474;29;20513;-82
2023/07/25 06:41:07;;;;;;;3.42;1.30;;;15.20;91.00;;;;;;4818817;29;20069;-83
2023/07/25 06:43:35;;;;;;;2.42;1.00;;;15.30;91.00;;;;;;4801865;29;20054;-84
2023/07/25 06:46:02;;;;;;;2.65;1.10;;;15.40;90.90;;;;;;4777521;29;20141;-84
2023/07/25 06:48:29;;;;;;;4.10;1.00;;;15.50;91.00;;;;;;4823580;29;20054;-84
2023/07/25 06:50:56;;;;;;;4.25;1.02;;;15.60;90.70;;;;;;4814368;29;20069;-84
2023/07/25 06:53:26;;;;;;;4.18;1.20;;;15.60;90.70;;;;;;4805763;29;20053;-83
2023/07/25 06:55:53;;;;;;;4.10;1.20;;;15.80;90.60;;;;;;4805856;29;20061;-82
2023/07/25 06:58:25;;;;;;;3.92;1.05;;;16.00;90.40;;;;;;4799533;29;20050;-83
2023/07/25 07:00:52;;;;;;;3.47;1.63;;;16.10;90.30;;;;;;4803680;29;20046;-82
2023/07/25 07:03:19;;;;;;;5.57;1.45;;;16.20;90.20;;;;;;4805084;29;20798;-83
2023/07/25 07:05:56;;;;;;;2.75;0.73;;;16.20;90.10;;;;;;4788580;29;20070;-82
2023/07/25 07:08:25;;;;;;;4.32;1.23;;;16.30;90.10;;;;;;4823226;29;20054;-83
2023/07/25 07:11:15;;;;;;;1.80;0.70;;;16.20;90.10;;;;;;4823067;29;20133;-83
2023/07/25 07:13:44;;;;;;;2.67;0.80;;;16.20;90.10;;;;;;4800433;29;20049;-84
2023/07/25 07:16:11;;;;;;;2.55;0.80;;;16.20;90.30;;;;;;4785643;29;20149;-82
2023/07/25 07:18:39;;;;;;;2.03;0.50;;;16.20;90.20;;;;;;4778588;29;20149;-83
2023/07/25 07:21:06;;;;;;;2.05;0.70;;;16.40;90.10;;;;;;4800072;29;20492;-83
2023/07/25 07:23:34;;;;;;;1.38;0.57;;;16.40;90.00;;;;;;4796185;29;20053;-83
2023/07/25 07:26:01;;;;;;;2.22;0.50;;;16.40;90.00;;;;;;4783369;29;20074;-83
2023/07/25 07:28:29;;;;;;;2.10;0.43;;;16.30;90.00;;;;;;4779104;29;20051;-83
2023/07/25 07:30:58;;;;;;;2.30;0.50;;;16.40;90.00;;;;;;4784276;29;20070;-82
2023/07/25 07:33:26;;;;;;;1.00;0.40;;;16.40;90.00;;;;;;4782144;29;20050;-82
2023/07/25 07:35:53;;;;;;;1.55;0.40;;;16.70;89.70;;;;;;4783555;29;20053;-81
2023/07/25 07:38:20;;;;;;;0.75;0.35;;;17.00;89.10;;;;;;4763621;29;20143;-82
2023/07/25 07:40:47;;;;;;;2.47;0.30;;;17.20;88.30;;;;;;4803371;29;20042;-83
2023/07/25 07:43:15;;;;;;;0.90;0.35;;;17.20;87.90;;;;;;4775225;29;20050;-82
2023/07/25 07:45:43;;;;;;;0.90;0.28;;;17.10;88.10;;;;;;4777229;29;20145;-82
2023/07/25 07:48:10;;;;;;;2.22;0.30;;;17.10;88.10;;;;;;4768263;29;20039;-82
2023/07/25 07:50:38;;;;;;;1.70;0.28;;;17.10;88.20;;;;;;4784846;29;20062;-83
2023/07/25 07:53:05;;;;;;;2.00;0.38;;;17.00;88.20;;;;;;4779374;29;20143;-83
2023/07/25 07:55:32;;;;;;;1.52;0.32;;;17.00;88.30;;;;;;4807618;29;20053;-83
2023/07/25 07:58:00;;;;;;;2.13;0.22;;;17.00;88.40;;;;;;4778208;29;20053;-83
2023/07/25 08:00:31;;;;;;;1.63;0.30;;;17.30;87.90;;;;;;4774380;29;20053;-83
2023/07/25 08:02:59;;;;;;;2.20;0.35;;;17.60;87.30;;;;;;4779401;29;20046;-83
2023/07/25 08:05:27;;;;;;;1.17;0.30;;;17.80;86.30;;;;;;4780809;29;20056;-82
2023/07/25 08:07:54;;;;;;;1.20;0.40;;;18.00;86.10;;;;;;4795288;29;20068;-81
2023/07/25 08:10:24;;;;;;;1.02;0.30;;;18.10;85.70;;;;;;4764080;29;20062;-84
2023/07/25 08:12:52;;;;;;;0.77;0.30;;;18.30;85.40;;;;;;4775134;29;20500;-82
2023/07/25 08:15:19;;;;;;;1.85;0.40;;;18.30;85.10;;;;;;4751847;30;20051;-84
2023/07/25 08:17:46;;;;;;;1.92;0.30;;;18.20;85.20;;;;;;4790158;29;20044;-83
2023/07/25 08:20:13;;;;;;;3.50;0.30;;;18.20;85.20;;;;;;4784336;29;20178;-83
2023/07/25 08:22:40;;;;;;;0.57;0.20;;;18.20;85.10;;;;;;4779165;29;20054;-83
2023/07/25 08:25:09;;;;;;;1.00;0.28;;;18.10;84.80;;;;;;4797816;29;20039;-83
2023/07/25 08:27:57;;;;;;;1.42;0.22;;;18.20;84.80;;;;;;4797485;29;20058;-83
2023/07/25 08:30:24;;;;;;;1.27;0.25;;;18.30;84.30;;;;;;4802927;29;20054;-82
2023/07/25 08:32:51;;;;;;;0.55;0.20;;;18.40;84.10;;;;;;4801368;29;20388;-80
2023/07/25 08:35:21;;;;;;;1.08;0.20;;;18.50;83.80;;;;;;4797752;29;20043;-85
2023/07/25 08:37:49;;;;;;;1.13;0.20;;;18.60;83.10;;;;;;4789089;29;20129;-86
2023/07/25 08:40:16;;;;;;;1.50;0.20;;;18.60;82.50;;;;;;4803147;29;20057;-85
2023/07/25 08:42:45;;;;;;;1.25;0.30;;;18.60;82.40;;;;;;4797830;29;20054;-85
2023/07/25 08:45:13;;;;;;;1.20;0.28;;;18.80;82.00;;;;;;4817211;29;20054;-83
2023/07/25 08:47:45;;;;;;;1.10;0.30;;;19.00;81.60;;;;;;4789531;29;20055;-83
2023/07/25 08:50:15;;;;;;;1.10;0.20;;;19.20;80.80;;;;;;4806514;29;20404;-81
2023/07/25 08:52:51;;;;;;;0.98;0.30;;;19.40;80.30;;;;;;4802608;29;20476;-82
2023/07/25 08:55:20;;;;;;;0.85;0.10;;;19.60;80.00;;;;;;4762284;29;20042;-83
2023/07/25 08:57:51;;;;;;;1.58;0.30;;;19.50;79.80;;;;;;4799956;29;20125;-83
2023/07/25 09:00:18;;;;;;;1.57;0.20;;;19.30;80.00;;;;;;4790282;29;20051;-82
2023/07/25 09:02:48;;;;;;;2.53;0.45;;;19.00;80.20;;;;;;4798208;29;20314;-83
2023/07/25 09:05:21;;;;;;;1.00;0.40;;;18.70;80.10;;;;;;4804208;29;20050;-82
2023/07/25 09:07:48;;;;;;;2.72;0.40;;;18.40;80.40;;;;;;4816539;29;20057;-82
2023/07/25 09:10:15;;;;;;;0.85;0.30;;;18.30;80.90;;;;;;4804947;29;20117;-83
2023/07/25 09:12:43;;;;;;;0.40;0.20;;;18.40;81.10;;;;;;4811686;29;20049;-83
2023/07/25 09:15:13;;;;;;;1.88;0.30;;;18.50;80.90;;;;;;4785717;29;20532;-81
2023/07/25 09:17:43;;;;;;;2.08;0.22;;;18.50;80.10;;;;;;4793035;29;20046;-85
2023/07/25 09:20:11;;;;;;;0.77;0.20;;;18.50;80.10;;;;;;4776955;29;20142;-86
2023/07/25 09:22:38;;;;;;;2.63;0.20;;;18.40;80.00;;;;;;4803785;29;20106;-87
2023/07/25 09:25:08;;;;;;;0.75;0.15;;;18.30;79.90;;;;;;4796475;29;20701;-85
2023/07/25 09:27:36;;;;;;;1.20;0.20;;;18.40;79.80;;;;;;4804037;29;20054;-86
2023/07/25 09:30:11;;;;;;;1.10;0.20;;;18.50;79.60;;;;;;4800751;29;20085;-86
2023/07/25 09:32:43;;;;;;;0.70;0.20;;;18.80;78.90;;;;;;4800059;29;20046;-85
2023/07/25 09:35:49;;;;;;;0.88;0.17;;;19.10;78.40;;;;;;4808079;29;20137;-86
2023/07/25 09:38:17;;;;;;;1.95;0.20;;;19.40;77.70;;;;;;4814987;29;20054;-84
2023/07/25 09:40:46;;;;;;;1.67;0.20;;;19.70;77.20;;;;;;4807128;29;20047;-83
2023/07/25 09:43:27;;;;;;;0.60;0.20;;;19.80;76.10;;;;;;4821954;29;20045;-83
2023/07/25 09:45:57;;;;;;;0.85;0.10;;;20.00;75.60;;;;;;4808116;29;20042;-81
2023/07/25 09:48:26;;;;;;;0.40;0.10;;;20.20;75.60;;;;;;4827220;29;20038;-86
2023/07/25 09:50:53;;;;;;;1.92;0.20;;;20.60;74.80;;;;;;4801991;29;20146;-79
2023/07/25 09:53:20;;;;;;;0.68;0.10;;;20.80;74.00;;;;;;4794913;29;20510;-84
2023/07/25 09:55:47;;;;;;;0.57;0.20;;;20.90;73.10;;;;;;4801626;29;20106;-86
2023/07/25 09:58:14;;;;;;;0.93;0.10;;;20.80;71.10;;;;;;4809793;29;20054;-86
2023/07/25 10:00:41;;;;;;;1.10;0.20;;;20.40;70.50;;;;;;4829534;29;20053;-85
2023/07/25 10:03:09;;;;;;;0.57;0.20;;;20.20;71.20;;;;;;4821702;29;20050;-88
2023/07/25 10:05:45;;;;;;;0.80;0.20;;;20.00;70.90;;;;;;4830248;29;20056;-84
2023/07/25 10:08:16;;;;;;;0.22;0.10;;;20.10;70.70;;;;;;4803105;29;20046;-87
2023/07/25 10:10:43;;;;;;;0.75;0.20;;;20.20;70.10;;;;;;4818487;29;20046;-84
2023/07/25 10:13:10;;;;;;;0.93;0.30;;;20.20;69.10;;;;;;4792531;29;20073;-85
2023/07/25 10:15:39;;;;;;;0.93;0.20;;;20.00;68.50;;;;;;4819770;29;20071;-88
2023/07/25 10:18:20;;;;;;;0.08;0.00;;;19.90;68.30;;;;;;4814255;29;20107;-87
2023/07/25 10:20:49;;;;;;;0.22;0.00;;;19.90;69.10;;;;;;4833443;29;20487;-88
2023/07/25 10:23:16;;;;;;;0.73;0.10;;;20.20;67.70;;;;;;4817433;29;20054;-88
2023/07/25 10:25:44;;;;;;;1.40;0.20;;;20.20;67.00;;;;;;4814618;29;20150;-89
2023/07/25 10:28:12;;;;;;;1.55;0.20;;;20.40;66.30;;;;;;4798448;29;20517;-88
2023/07/25 10:30:45;;;;;;;1.85;0.30;;;20.40;66.60;;;;;;4789535;29;20476;-92
2023/07/25 10:33:15;;;;;;;0.75;0.20;;;20.60;66.70;;;;;;4787081;29;20495;-86
2023/07/25 10:35:42;;;;;;;0.43;0.10;;;20.70;65.90;;;;;;4796321;29;20103;-85
2023/07/25 10:38:12;;;;;;;0.60;0.10;;;20.60;65.60;;;;;;4788432;29;20047;-85
2023/07/25 10:40:57;;;;;;;1.10;0.13;;;20.50;66.10;;;;;;4793046;29;20042;-87
2023/07/25 10:43:29;;;;;;;0.30;0.10;;;20.60;66.20;;;;;;4794801;29;20050;-88
2023/07/25 10:46:00;;;;;;;0.10;0.10;;;20.80;66.40;;;;;;4805557;29;20058;-85
2023/07/25 10:48:34;;;;;;;1.63;0.05;;;21.00;64.60;;;;;;4812485;29;20081;-85
2023/07/25 10:51:06;;;;;;;0.75;0.10;;;21.00;64.20;;;;;;4788060;29;20058;-85
2023/07/25 10:53:34;;;;;;;0.70;0.10;;;21.10;63.90;;;;;;4800775;29;20484;-87
2023/07/25 10:56:04;;;;;;;0.50;0.10;;;21.20;63.90;;;;;;4801744;29;20126;-85
2023/07/25 10:58:38;;;;;;;1.60;0.10;;;21.30;63.70;;;;;;4801849;29;20096;-81
2023/07/25 11:01:06;;;;;;;0.43;0.10;;;21.40;63.50;;;;;;4796502;29;20145;-87
2023/07/25 11:03:36;;;;;;;1.10;0.20;;;21.50;62.60;;;;;;4790891;29;20058;-85
2023/07/25 11:06:06;;;;;;;0.60;0.10;;;21.50;62.90;;;;;;4796204;29;20081;-85
2023/07/25 11:08:40;;;;;;;0.98;0.20;;;21.60;62.20;;;;;;4796702;29;20062;-80
2023/07/25 11:11:09;;;;;;;0.30;0.10;;;21.70;61.80;;;;;;4781548;29;20064;-80
2023/07/25 11:13:39;;;;;;;0.17;0.10;;;21.80;61.50;;;;;;4793230;29;20147;-81
2023/07/25 11:16:09;;;;;;;0.98;0.10;;;21.90;60.90;;;;;;4791971;29;20047;-80
2023/07/25 11:18:47;;;;;;;0.55;0.10;;;21.80;60.40;;;;;;4792394;29;20177;-80
2023/07/25 11:21:15;;;;;;;0.40;0.10;;;21.90;60.30;;;;;;4796308;29;20058;-80
2023/07/25 11:23:42;;;;;;;0.52;0.10;;;21.80;60.30;;;;;;4791688;29;20411;-80
2023/07/25 11:26:10;;;;;;;0.30;0.10;;;22.10;60.50;;;;;;4814888;29;20522;-80
2023/07/25 11:28:40;;;;;;;0.35;0.10;;;22.40;60.40;;;;;;4795070;29;20058;-79
2023/07/25 11:31:07;;;;;;;0.25;0.08;;;22.50;59.90;;;;;;4803354;29;20430;-79
2023/07/25 11:33:40;;;;;;;0.30;0.00;;;22.60;59.10;;;;;;4790729;29;20050;-80
2023/07/25 11:36:07;;;;;;;0.73;0.32;;;22.60;58.70;;;;;;4779479;29;20141;-79
2023/07/25 11:38:37;;;;;;;0.40;0.10;;;22.60;59.30;;;;;;4794248;29;20083;-77
2023/07/25 11:41:05;;;;;;;0.50;0.10;;;22.70;58.70;;;;;;4787086;29;20062;-80
2023/07/25 11:43:32;;;;;;;0.40;0.05;;;22.80;58.20;;;;;;4814176;29;20133;-82
2023/07/25 11:45:59;;;;;;;0.80;0.10;;;22.90;58.00;;;;;;4776610;29;20101;-82
2023/07/25 11:48:28;;;;;;;0.38;0.10;;;23.10;57.70;;;;;;4774553;29;20058;-82
2023/07/25 11:51:01;;;;;;;2.40;0.10;;;23.40;56.00;;;;;;4792076;29;20412;-82
2023/07/25 11:53:29;;;;;;;1.85;0.10;;;23.60;54.30;;;;;;4804085;29;20043;-82
2023/07/25 11:56:00;;;;;;;0.98;0.10;;;23.50;53.80;;;;;;4789303;29;20043;-79
2023/07/25 11:58:30;;;;;;;1.60;0.10;;;23.40;53.70;;;;;;4779912;29;20051;-85
2023/07/25 12:00:57;;;;;;;0.30;0.00;;;23.50;54.30;;;;;;4781480;29;20047;-85
2023/07/25 12:03:25;;;;;;;0.47;0.10;;;23.80;54.40;;;;;;4787001;29;20047;-85
2023/07/25 12:05:57;;;;;;;0.30;0.10;;;23.70;54.30;;;;;;4786162;29;20145;-84
2023/07/25 12:08:41;;;;;;;0.22;0.00;;;23.70;54.80;;;;;;4809130;29;20046;-84
2023/07/25 12:11:13;;;;;;;0.93;0.10;;;23.60;55.20;;;;;;4799309;29;20054;-82
2023/07/25 12:13:54;;;;;;;0.20;0.00;;;23.60;55.10;;;;;;4750618;29;20050;-82
2023/07/25 12:16:38;;;;;;;0.20;0.10;;;23.90;54.90;;;;;;4796929;29;20054;-79
2023/07/25 12:19:08;;;;;;;1.15;0.10;;;24.50;54.50;;;;;;4789354;29;20103;-81
2023/07/25 12:21:37;;;;;;;1.05;0.10;;;25.00;53.00;;;;;;4793897;29;20059;-78
2023/07/25 12:24:09;;;;;;;1.30;0.10;;;24.50;51.90;;;;;;4786849;29;20085;-78
2023/07/25 12:26:46;;;;;;;0.60;0.17;;;23.80;52.90;;;;;;4791837;29;20058;-80
2023/07/25 12:29:21;;;;;;;1.63;0.20;;;23.10;52.80;;;;;;4826948;29;20037;-82
2023/07/25 12:31:48;;;;;;;0.55;0.13;;;22.50;54.10;;;;;;4812623;29;20061;-81
2023/07/25 12:34:20;;;;;;;0.80;0.10;;;22.20;54.90;;;;;;4794557;29;20042;-83
2023/07/25 12:36:48;;;;;;;1.25;0.20;;;22.10;54.80;;;;;;4806095;29;20046;-80
2023/07/25 12:39:16;;;;;;;0.43;0.10;;;22.80;53.90;;;;;;4795394;29;20054;-81
2023/07/25 12:41:45;;;;;;;0.43;0.10;;;23.80;52.70;;;;;;4793330;29;20065;-79
2023/07/25 12:44:12;;;;;;;0.43;0.10;;;24.60;51.50;;;;;;4799057;29;20103;-79
2023/07/25 12:46:39;;;;;;;0.55;0.13;;;24.70;51.40;;;;;;4809094;29;20054;-82
2023/07/25 12:49:09;;;;;;;0.88;0.10;;;24.40;51.90;;;;;;4803950;29;20157;-81
2023/07/25 12:51:36;;;;;;;0.68;0.10;;;24.00;52.80;;;;;;4801977;29;20050;-84
2023/07/25 12:54:03;;;;;;;1.45;0.20;;;23.40;53.70;;;;;;4790305;29;20046;-78
2023/07/25 12:56:30;;;;;;;0.93;0.10;;;23.00;54.50;;;;;;4798948;29;20056;-79